Time;durP1;ratioP1;P1;durP2;ratioP2;P2;SDS_P1;SDS_P2;PMS_P1;PMS_P2;Temp;Humidity;BMP_temperature;BMP_pressure;BME280_temperature;BME280_humidity;BME280_pressure;Samples;Min_cycle;Max_cycle;Signal;HPM_P1;HPM_P2
2021/12/01 00:01:41;;;;;;;129.68;48.03;;;-0.40;95.40;;;;;;5040526;28;20021;-76
2021/12/01 00:04:07;;;;;;;140.18;53.70;;;-0.30;95.90;;;;;;5040696;28;20288;-77
2021/12/01 00:06:33;;;;;;;130.35;50.45;;;-0.40;95.90;;;;;;5040627;28;20082;-76
2021/12/01 00:09:00;;;;;;;70.55;28.55;;;-0.40;95.90;;;;;;5040309;28;20029;-76
2021/12/01 00:11:26;;;;;;;38.67;18.42;;;-0.40;95.80;;;;;;5040081;28;20311;-77
2021/12/01 00:13:52;;;;;;;48.83;20.08;;;-0.40;95.70;;;;;;5040528;28;20037;-77
2021/12/01 00:16:18;;;;;;;90.70;35.75;;;-0.40;95.90;;;;;;5040653;28;20507;-77
2021/12/01 00:18:43;;;;;;;47.17;21.63;;;-0.40;96.00;;;;;;5040419;28;20044;-77
2021/12/01 00:21:09;;;;;;;102.20;37.50;;;-0.30;96.00;;;;;;5040031;28;20021;-77
2021/12/01 00:23:35;;;;;;;40.03;18.73;;;-0.30;96.20;;;;;;5040358;28;20032;-77
2021/12/01 00:26:02;;;;;;;30.00;16.25;;;-0.30;96.30;;;;;;5038797;28;20435;-77
2021/12/01 00:28:27;;;;;;;32.60;16.75;;;-0.40;96.00;;;;;;5040477;28;20014;-78
2021/12/01 00:30:53;;;;;;;31.73;16.10;;;-0.40;96.20;;;;;;5049221;28;20091;-76
2021/12/01 00:33:23;;;;;;;32.88;15.95;;;-1.10;96.00;;;;;;5051465;28;20025;-76
2021/12/01 00:35:53;;;;;;;47.28;22.95;;;0.50;96.60;;;;;;5052088;28;20036;-77
2021/12/01 00:38:20;;;;;;;36.50;17.20;;;-0.20;96.50;;;;;;5050169;28;20033;-76
2021/12/01 00:40:47;;;;;;;35.08;16.83;;;-0.30;96.40;;;;;;5051572;28;20095;-77
2021/12/01 00:43:17;;;;;;;36.50;17.23;;;-0.20;96.60;;;;;;5046425;28;20238;-76
2021/12/01 00:45:50;;;;;;;36.08;17.70;;;-0.20;96.90;;;;;;5040378;28;20094;-77
2021/12/01 00:48:17;;;;;;;27.65;13.70;;;-0.10;96.90;;;;;;5040362;28;20028;-77
2021/12/01 00:50:44;;;;;;;23.52;12.80;;;-0.20;96.40;;;;;;5039933;28;20017;-77
2021/12/01 00:53:11;;;;;;;23.73;11.90;;;-0.10;96.50;;;;;;5040263;28;20025;-78
2021/12/01 00:55:37;;;;;;;20.15;10.35;;;0.00;96.40;;;;;;5040254;28;20471;-77
2021/12/01 00:58:04;;;;;;;19.40;9.82;;;0.00;96.10;;;;;;5039936;28;20045;-77
2021/12/01 01:00:31;;;;;;;20.35;10.90;;;-0.10;96.30;;;;;;5040267;28;20498;-77
2021/12/01 01:02:58;;;;;;;23.63;10.48;;;0.00;96.70;;;;;;5040442;28;20060;-77
2021/12/01 01:05:24;;;;;;;21.50;11.18;;;0.00;96.60;;;;;;5039783;28;20043;-77
2021/12/01 01:07:50;;;;;;;24.20;12.27;;;0.00;96.60;;;;;;5039797;28;20104;-77
2021/12/01 01:18:21;;;;;;;27.42;13.68;;;0.00;97.00;;;;;;5040866;28;20055;-77
2021/12/01 01:20:47;;;;;;;30.98;14.48;;;0.10;96.90;;;;;;5045141;28;20029;-77
2021/12/01 01:23:13;;;;;;;28.92;14.52;;;0.00;96.90;;;;;;5045094;28;20013;-77
2021/12/01 01:25:39;;;;;;;29.30;15.00;;;0.20;97.10;;;;;;5043849;28;20457;-78
2021/12/01 01:28:04;;;;;;;28.83;14.07;;;0.30;97.00;;;;;;5046313;28;20017;-77
2021/12/01 01:30:31;;;;;;;24.25;13.00;;;0.30;97.10;;;;;;5040334;28;20025;-77
2021/12/01 01:32:57;;;;;;;26.10;13.23;;;0.40;97.50;;;;;;5039721;28;20110;-77
2021/12/01 01:35:24;;;;;;;25.65;12.63;;;0.40;97.20;;;;;;5039664;28;20021;-78
2021/12/01 01:37:50;;;;;;;24.80;12.38;;;0.50;97.10;;;;;;5039205;28;20036;-77
2021/12/01 01:40:16;;;;;;;22.38;11.30;;;0.50;96.80;;;;;;5039153;28;20036;-77
2021/12/01 01:42:42;;;;;;;24.25;12.50;;;0.40;96.60;;;;;;5038953;28;20726;-77
2021/12/01 01:45:09;;;;;;;28.45;15.65;;;0.50;96.40;;;;;;5039736;28;20035;-76
2021/12/01 01:47:35;;;;;;;27.30;14.48;;;0.40;96.60;;;;;;5039183;28;20079;-77
2021/12/01 01:52:34;;;;;;;28.65;13.73;;;0.50;96.80;;;;;;5039304;28;20025;-77
2021/12/01 01:55:00;;;;;;;29.50;15.27;;;0.50;96.80;;;;;;5039187;28;20083;-77
2021/12/01 01:57:26;;;;;;;35.30;17.42;;;0.60;96.70;;;;;;5039399;28;20013;-77
2021/12/01 01:59:51;;;;;;;37.20;17.08;;;0.60;96.90;;;;;;5039591;28;20427;-78
2021/12/01 02:02:19;;;;;;;27.45;13.35;;;0.60;97.20;;;;;;5042814;28;20052;-77
2021/12/01 02:04:45;;;;;;;26.50;13.10;;;0.60;96.80;;;;;;5042605;28;20242;-77
2021/12/01 02:07:11;;;;;;;22.30;11.68;;;-0.80;97.10;;;;;;5040721;28;20025;-78
2021/12/01 02:09:37;;;;;;;21.33;11.60;;;0.60;97.00;;;;;;5039367;28;20029;-77
2021/12/01 02:12:05;;;;;;;20.55;11.30;;;0.60;97.00;;;;;;5039798;28;20109;-77
2021/12/01 02:14:31;;;;;;;19.70;10.57;;;0.60;97.00;;;;;;5039925;28;20025;-76
2021/12/01 02:16:58;;;;;;;15.90;8.88;;;0.60;97.00;;;;;;5039969;28;20052;-77
2021/12/01 02:19:24;;;;;;;19.20;10.50;;;0.50;97.10;;;;;;5040056;28;20053;-77
2021/12/01 02:21:51;;;;;;;16.65;8.85;;;0.60;97.30;;;;;;5046063;28;20108;-77
2021/12/01 02:24:19;;;;;;;16.33;9.30;;;0.60;97.40;;;;;;5046246;28;20021;-78
2021/12/01 02:26:49;;;;;;;18.05;8.60;;;0.60;97.40;;;;;;5045188;28;20021;-76
2021/12/01 02:29:19;;;;;;;14.02;8.38;;;0.60;97.30;;;;;;5042476;28;20294;-78
2021/12/01 02:31:46;;;;;;;15.45;8.55;;;0.60;97.20;;;;;;5038557;28;20337;-77
2021/12/01 02:34:18;;;;;;;16.92;8.57;;;0.70;97.10;;;;;;5038671;28;20021;-78
2021/12/01 02:36:55;;;;;;;18.55;9.30;;;1.70;97.50;;;;;;5038195;28;20302;-77
2021/12/01 02:39:22;;;;;;;18.25;8.98;;;0.70;97.30;;;;;;5037965;28;20052;-77
2021/12/01 02:41:52;;;;;;;18.25;8.80;;;0.80;97.40;;;;;;5038297;28;20033;-77
2021/12/01 02:44:18;;;;;;;20.20;8.40;;;0.80;97.30;;;;;;5038105;28;20024;-77
2021/12/01 02:46:45;;;;;;;18.02;9.15;;;0.80;97.30;;;;;;5038294;28;20024;-78
2021/12/01 02:49:11;;;;;;;14.40;7.65;;;0.70;97.10;;;;;;5038359;28;20045;-77
2021/12/01 02:51:38;;;;;;;14.05;8.23;;;0.70;97.30;;;;;;5038085;28;20049;-77
2021/12/01 02:54:06;;;;;;;15.82;8.25;;;0.80;97.60;;;;;;5038297;28;20025;-77
2021/12/01 02:56:33;;;;;;;15.45;7.88;;;0.80;97.80;;;;;;5038450;28;20104;-77
2021/12/01 02:59:01;;;;;;;19.10;9.13;;;0.80;97.70;;;;;;5038316;28;20041;-77
2021/12/01 03:01:27;;;;;;;14.75;8.27;;;0.80;97.90;;;;;;5038409;28;20025;-77
2021/12/01 03:03:54;;;;;;;17.13;8.70;;;0.90;97.70;;;;;;5041971;28;20327;-77
2021/12/01 03:06:24;;;;;;;13.88;7.95;;;0.90;97.50;;;;;;5042089;28;20051;-77
2021/12/01 03:08:50;;;;;;;14.93;7.47;;;0.90;97.40;;;;;;5041293;28;20519;-77
2021/12/01 03:11:16;;;;;;;16.23;8.02;;;0.80;97.50;;;;;;5040277;28;20344;-77
2021/12/01 03:13:42;;;;;;;14.57;7.32;;;0.90;97.60;;;;;;5041815;28;20056;-77
2021/12/01 03:16:08;;;;;;;16.10;7.45;;;0.90;97.50;;;;;;5042079;28;20079;-77
2021/12/01 03:18:34;;;;;;;12.65;7.03;;;0.90;97.40;;;;;;5041604;28;20553;-77
2021/12/01 03:21:00;;;;;;;12.77;6.72;;;0.90;97.50;;;;;;5040344;28;20510;-77
2021/12/01 03:23:27;;;;;;;9.73;6.10;;;0.90;97.20;;;;;;5041902;28;20014;-77
2021/12/01 03:25:53;;;;;;;12.57;6.45;;;0.80;97.30;;;;;;5041474;28;20025;-77
2021/12/01 03:28:20;;;;;;;11.32;6.68;;;0.80;97.60;;;;;;5041436;28;20013;-76
2021/12/01 03:30:46;;;;;;;11.80;6.97;;;0.80;97.60;;;;;;5041176;28;20074;-77
2021/12/01 03:33:20;;;;;;;16.80;7.07;;;0.80;97.90;;;;;;5041501;28;20017;-77
2021/12/01 03:35:48;;;;;;;12.10;6.88;;;0.80;98.00;;;;;;5041353;28;20017;-77
2021/12/01 03:38:15;;;;;;;14.85;7.55;;;0.70;98.10;;;;;;5040830;28;20649;-77
2021/12/01 03:40:41;;;;;;;14.73;8.45;;;0.70;98.10;;;;;;5041216;28;20045;-78
2021/12/01 03:43:07;;;;;;;16.00;8.30;;;0.70;98.40;;;;;;5041064;28;20044;-77
2021/12/01 03:45:32;;;;;;;12.52;6.95;;;0.60;98.60;;;;;;5040984;28;20213;-77
2021/12/01 03:47:59;;;;;;;11.50;7.05;;;0.70;98.80;;;;;;5041085;28;20028;-77
2021/12/01 03:50:25;;;;;;;11.45;6.80;;;0.70;98.80;;;;;;5041163;28;20348;-77
2021/12/01 03:52:51;;;;;;;13.98;7.25;;;0.70;98.90;;;;;;5041133;28;20079;-77
2021/12/01 03:55:16;;;;;;;25.38;11.57;;;0.80;98.90;;;;;;5041073;28;20017;-78
2021/12/01 03:57:42;;;;;;;13.52;7.18;;;0.90;98.90;;;;;;5040776;28;20040;-77
2021/12/01 04:00:12;;;;;;;13.85;7.25;;;0.90;98.40;;;;;;5040432;28;20041;-77
2021/12/01 04:02:38;;;;;;;15.10;7.85;;;0.90;98.20;;;;;;5040781;28;20018;-77
2021/12/01 04:05:04;;;;;;;18.60;7.90;;;0.90;98.30;;;;;;5040516;28;20032;-77
2021/12/01 04:07:31;;;;;;;14.32;7.82;;;0.90;98.30;;;;;;5040086;28;20097;-78
2021/12/01 04:09:57;;;;;;;14.13;7.60;;;0.90;98.20;;;;;;5040193;28;20029;-78
2021/12/01 04:12:24;;;;;;;13.52;7.35;;;0.80;98.10;;;;;;5040277;28;20028;-77
2021/12/01 04:14:50;;;;;;;19.75;10.00;;;0.80;98.10;;;;;;5040750;28;20021;-77
2021/12/01 04:17:16;;;;;;;17.90;8.05;;;0.80;98.30;;;;;;5040584;28;20028;-77
2021/12/01 04:19:42;;;;;;;20.80;8.95;;;0.80;98.30;;;;;;5040623;28;20063;-77
2021/12/01 04:22:07;;;;;;;17.23;6.85;;;0.80;98.50;;;;;;5040168;28;20515;-77
2021/12/01 04:24:33;;;;;;;13.73;6.30;;;0.70;98.00;;;;;;5040259;28;20025;-78
2021/12/01 04:26:59;;;;;;;11.20;5.78;;;0.70;98.10;;;;;;5040572;28;20021;-77
2021/12/01 04:29:26;;;;;;;10.80;6.68;;;0.60;98.20;;;;;;5040781;28;20547;-78
2021/12/01 04:31:52;;;;;;;10.98;6.57;;;0.60;98.20;;;;;;5038953;28;20116;-78
2021/12/01 04:34:20;;;;;;;13.15;7.15;;;0.70;98.20;;;;;;5040842;28;20021;-77
2021/12/01 04:36:47;;;;;;;15.65;7.78;;;0.70;98.10;;;;;;5040882;28;20589;-77
2021/12/01 04:39:15;;;;;;;20.45;8.80;;;0.70;98.30;;;;;;5041126;28;20037;-77
2021/12/01 04:41:49;;;;;;;24.58;11.18;;;0.70;98.20;;;;;;5041071;28;20379;-77
2021/12/01 04:44:15;;;;;;;27.55;12.05;;;0.70;98.40;;;;;;5040938;28;20379;-78
2021/12/01 04:46:46;;;;;;;28.52;13.18;;;0.70;98.50;;;;;;5041544;28;20519;-77
2021/12/01 04:49:19;;;;;;;21.20;9.88;;;0.70;98.60;;;;;;5044883;28;20021;-78
2021/12/01 04:51:48;;;;;;;17.35;8.13;;;0.70;98.50;;;;;;5046293;28;20668;-77
2021/12/01 04:54:14;;;;;;;14.25;6.78;;;0.60;98.30;;;;;;5047317;28;20533;-78
2021/12/01 04:56:41;;;;;;;11.27;6.32;;;0.60;98.30;;;;;;5047879;28;20252;-77
2021/12/01 04:59:08;;;;;;;12.93;7.25;;;0.60;98.50;;;;;;5041482;28;20277;-77
2021/12/01 05:01:36;;;;;;;11.95;6.65;;;0.60;98.30;;;;;;5040400;28;20263;-78
2021/12/01 05:04:02;;;;;;;13.80;7.60;;;0.50;98.00;;;;;;5039320;28;20486;-77
2021/12/01 05:06:28;;;;;;;15.18;7.93;;;0.50;98.20;;;;;;5039953;28;20248;-78
2021/12/01 05:08:54;;;;;;;15.40;8.25;;;0.50;98.50;;;;;;5039547;28;20329;-77
2021/12/01 05:11:20;;;;;;;16.10;8.50;;;0.50;98.50;;;;;;5039719;28;20659;-78
2021/12/01 05:13:46;;;;;;;12.52;7.30;;;0.40;98.30;;;;;;5039693;28;20411;-78
2021/12/01 05:16:12;;;;;;;14.43;8.27;;;0.40;98.40;;;;;;5040024;28;20021;-77
2021/12/01 05:18:38;;;;;;;18.23;8.18;;;0.40;98.70;;;;;;5039473;28;20515;-78
2021/12/01 05:21:04;;;;;;;13.55;7.70;;;0.30;98.50;;;;;;5039729;28;20249;-77
2021/12/01 05:23:31;;;;;;;15.77;8.63;;;0.30;98.60;;;;;;5040016;28;20032;-77
2021/12/01 05:25:57;;;;;;;21.67;10.75;;;0.30;98.90;;;;;;5039209;28;20321;-78
2021/12/01 05:28:23;;;;;;;31.20;14.90;;;0.30;98.90;;;;;;5039814;28;20040;-77
2021/12/01 05:30:50;;;;;;;30.45;13.77;;;0.30;99.00;;;;;;5040133;28;20021;-78
2021/12/01 05:33:16;;;;;;;24.95;12.30;;;0.30;99.10;;;;;;5038297;28;20029;-78
2021/12/01 05:35:43;;;;;;;22.83;11.35;;;0.40;98.90;;;;;;5039808;28;20018;-77
2021/12/01 05:38:10;;;;;;;19.40;10.77;;;0.30;98.60;;;;;;5039881;28;20040;-78
2021/12/01 05:40:36;;;;;;;32.05;17.63;;;0.30;98.60;;;;;;5039767;28;20037;-77
2021/12/01 05:43:02;;;;;;;19.98;11.85;;;0.30;98.30;;;;;;5041296;28;20549;-78
2021/12/01 05:45:28;;;;;;;25.40;12.75;;;0.20;98.40;;;;;;5046084;28;20202;-78
2021/12/01 05:47:55;;;;;;;28.33;14.20;;;0.20;98.50;;;;;;5046019;28;20021;-77
2021/12/01 05:50:21;;;;;;;49.10;22.58;;;0.20;98.60;;;;;;5046542;28;20503;-77
2021/12/01 05:52:47;;;;;;;44.05;18.88;;;0.20;98.80;;;;;;5039858;28;20059;-78
2021/12/01 05:55:13;;;;;;;185.38;64.40;;;0.10;99.00;;;;;;5039118;28;20029;-77
2021/12/01 05:57:39;;;;;;;114.60;43.90;;;0.10;98.90;;;;;;5038761;28;20033;-78
2021/12/01 06:00:08;;;;;;;54.97;26.38;;;0.20;99.00;;;;;;5038984;28;20045;-78
2021/12/01 06:02:34;;;;;;;45.45;24.05;;;0.20;98.90;;;;;;5037190;28;20151;-77
2021/12/01 06:05:00;;;;;;;51.83;24.38;;;0.30;98.80;;;;;;5038693;28;20389;-77
2021/12/01 06:07:26;;;;;;;47.63;22.33;;;0.30;98.80;;;;;;5037438;28;20148;-77
2021/12/01 06:09:52;;;;;;;52.85;23.15;;;0.30;98.60;;;;;;5038087;28;20036;-77
2021/12/01 06:12:18;;;;;;;61.72;29.42;;;0.30;98.80;;;;;;5036806;28;20025;-77
2021/12/01 06:14:45;;;;;;;77.70;35.42;;;0.30;99.30;;;;;;5038254;28;20520;-77
2021/12/01 06:17:14;;;;;;;62.50;30.30;;;0.30;99.10;;;;;;5037194;28;20025;-77
2021/12/01 06:19:41;;;;;;;46.40;23.33;;;0.30;99.00;;;;;;5038394;28;20032;-78
2021/12/01 06:22:07;;;;;;;33.13;16.95;;;0.30;99.30;;;;;;5037060;28;20396;-79
2021/12/01 06:24:35;;;;;;;19.80;11.25;;;0.30;99.00;;;;;;5037625;28;20103;-78
2021/12/01 06:27:01;;;;;;;18.00;9.90;;;0.30;98.40;;;;;;5038166;28;20021;-78
2021/12/01 06:29:27;;;;;;;20.58;11.32;;;0.30;98.50;;;;;;5038358;28;20348;-78
2021/12/01 06:31:53;;;;;;;23.48;11.88;;;0.30;98.50;;;;;;5038340;28;20045;-78
2021/12/01 06:34:19;;;;;;;27.15;12.55;;;0.50;98.50;;;;;;5038395;28;20347;-77
2021/12/01 06:36:44;;;;;;;21.88;10.18;;;0.40;98.30;;;;;;5040667;28;20040;-79
2021/12/01 06:39:10;;;;;;;21.55;10.32;;;0.50;98.10;;;;;;5042337;28;20036;-77
2021/12/01 06:41:36;;;;;;;25.95;10.57;;;0.50;98.30;;;;;;5042725;28;20044;-77
2021/12/01 06:44:03;;;;;;;22.92;11.82;;;0.40;98.20;;;;;;5042754;28;20599;-78
2021/12/01 06:46:29;;;;;;;23.95;11.13;;;0.40;98.30;;;;;;5043313;28;20492;-78
2021/12/01 06:48:57;;;;;;;19.40;9.32;;;0.50;98.40;;;;;;5042779;28;20332;-78
2021/12/01 06:51:23;;;;;;;18.38;9.93;;;0.50;98.40;;;;;;5041813;28;20385;-78
2021/12/01 06:53:50;;;;;;;16.42;9.23;;;0.50;98.20;;;;;;5043037;28;20115;-78
2021/12/01 06:56:16;;;;;;;20.77;10.40;;;0.60;98.10;;;;;;5042924;28;20029;-78
2021/12/01 06:58:43;;;;;;;23.75;12.15;;;0.80;97.80;;;;;;5042293;28;20233;-78
2021/12/01 07:01:09;;;;;;;28.90;14.57;;;1.00;97.40;;;;;;5042681;28;20060;-78
2021/12/01 07:03:35;;;;;;;29.95;15.30;;;1.10;97.30;;;;;;5043142;28;20275;-78
2021/12/01 07:06:02;;;;;;;33.10;16.00;;;1.20;97.20;;;;;;5043388;28;20597;-78
2021/12/01 07:08:28;;;;;;;35.65;16.55;;;1.40;96.90;;;;;;5044525;28;20020;-78
2021/12/01 07:10:55;;;;;;;40.55;18.33;;;1.50;96.60;;;;;;5044312;28;20032;-78
2021/12/01 07:13:21;;;;;;;35.55;18.33;;;1.70;96.10;;;;;;5043829;28;20099;-78
2021/12/01 07:15:47;;;;;;;35.33;16.83;;;1.80;96.00;;;;;;5043209;28;20067;-77
2021/12/01 07:18:13;;;;;;;31.20;16.83;;;1.90;95.40;;;;;;5044211;28;20092;-78
2021/12/01 07:20:40;;;;;;;28.20;14.25;;;2.00;95.40;;;;;;5025616;28;20241;-77
2021/12/01 07:23:06;;;;;;;27.38;13.63;;;1.90;95.20;;;;;;5043489;28;20442;-79
2021/12/01 07:25:32;;;;;;;25.98;13.75;;;1.90;95.10;;;;;;5043303;28;20671;-78
2021/12/01 07:27:59;;;;;;;27.83;13.98;;;1.90;95.40;;;;;;5043563;28;20103;-78
2021/12/01 07:30:25;;;;;;;29.70;15.73;;;1.80;95.60;;;;;;5043748;28;20269;-78
2021/12/01 07:32:51;;;;;;;30.27;15.73;;;1.80;95.60;;;;;;5042227;28;20032;-78
2021/12/01 07:35:18;;;;;;;32.92;16.30;;;1.70;95.70;;;;;;5043898;28;20098;-78
2021/12/01 07:37:44;;;;;;;38.85;18.45;;;1.70;96.20;;;;;;5043194;28;20441;-78
2021/12/01 07:40:11;;;;;;;36.50;17.77;;;1.70;96.00;;;;;;5043738;28;20471;-78
2021/12/01 07:42:37;;;;;;;34.58;16.98;;;1.80;96.00;;;;;;5044210;28;20213;-78
2021/12/01 07:45:04;;;;;;;36.38;19.55;;;1.30;95.60;;;;;;5043363;28;20387;-78
2021/12/01 07:47:31;;;;;;;38.90;20.67;;;1.90;95.70;;;;;;5044245;28;20523;-78
2021/12/01 07:49:56;;;;;;;42.35;21.50;;;1.90;95.80;;;;;;5045164;28;20467;-78
2021/12/01 07:52:22;;;;;;;33.70;17.77;;;2.00;95.80;;;;;;5046481;28;20109;-78
2021/12/01 07:54:48;;;;;;;34.22;17.17;;;2.20;95.80;;;;;;5046860;28;20319;-78
2021/12/01 07:57:15;;;;;;;37.65;19.90;;;2.30;94.90;;;;;;5052339;28;20025;-78
2021/12/01 07:59:41;;;;;;;34.00;16.63;;;2.50;94.90;;;;;;5051688;28;20072;-77
2021/12/01 08:02:07;;;;;;;30.45;16.65;;;2.70;94.50;;;;;;5052003;28;20028;-78
2021/12/01 08:04:33;;;;;;;29.35;15.77;;;2.80;94.60;;;;;;5049597;28;20093;-78
2021/12/01 08:07:00;;;;;;;31.05;16.48;;;3.00;94.30;;;;;;5044294;28;20029;-79
2021/12/01 08:09:26;;;;;;;37.08;18.63;;;3.20;93.90;;;;;;5044531;28;20040;-78
2021/12/01 08:11:54;;;;;;;31.52;16.50;;;3.40;93.40;;;;;;5045273;28;20213;-78
2021/12/01 08:14:20;;;;;;;33.08;16.55;;;3.50;93.30;;;;;;5044623;28;20111;-78
2021/12/01 08:16:46;;;;;;;29.02;14.30;;;3.60;92.60;;;;;;5044089;28;20096;-79
2021/12/01 08:19:12;;;;;;;26.15;14.25;;;3.80;92.50;;;;;;5043839;28;20112;-78
2021/12/01 08:21:38;;;;;;;29.88;15.13;;;4.10;92.10;;;;;;5044517;28;20480;-79
2021/12/01 08:24:04;;;;;;;28.42;15.25;;;4.30;92.10;;;;;;5044789;28;20013;-78
2021/12/01 08:26:30;;;;;;;26.35;14.13;;;4.50;91.20;;;;;;5043655;28;20576;-78
2021/12/01 08:28:56;;;;;;;26.02;14.00;;;4.80;90.70;;;;;;5043916;28;20048;-78
2021/12/01 08:31:24;;;;;;;24.45;13.98;;;5.00;90.50;;;;;;5042329;28;20025;-78
2021/12/01 08:33:50;;;;;;;31.73;16.67;;;5.10;90.30;;;;;;5042954;28;20434;-78
2021/12/01 08:36:16;;;;;;;27.88;15.98;;;5.70;90.10;;;;;;5043183;28;20549;-77
2021/12/01 08:38:43;;;;;;;32.78;16.98;;;5.30;89.10;;;;;;5043886;28;20516;-81
2021/12/01 08:41:09;;;;;;;43.50;22.02;;;5.10;90.20;;;;;;5043051;28;20028;-76
2021/12/01 08:43:35;;;;;;;39.95;20.25;;;5.10;90.20;;;;;;5044171;28;20021;-77
2021/12/01 08:46:02;;;;;;;47.40;22.63;;;5.10;90.70;;;;;;5044507;28;20166;-77
2021/12/01 08:48:28;;;;;;;36.35;17.92;;;5.10;90.40;;;;;;5045002;28;20028;-78
2021/12/01 08:50:56;;;;;;;33.75;16.23;;;5.20;90.40;;;;;;5044680;28;20305;-76
2021/12/01 08:53:23;;;;;;;31.80;15.52;;;5.50;88.90;;;;;;5045081;28;20017;-77
2021/12/01 08:55:49;;;;;;;27.00;12.90;;;5.80;89.00;;;;;;5047550;28;20028;-76
2021/12/01 08:58:16;;;;;;;40.47;21.98;;;6.00;86.60;;;;;;5049484;28;20041;-76
2021/12/01 09:00:45;;;;;;;40.45;22.73;;;6.10;87.00;;;;;;5047558;28;20025;-78
2021/12/01 09:03:14;;;;;;;30.85;16.58;;;6.30;86.50;;;;;;5049504;28;20294;-76
2021/12/01 09:05:40;;;;;;;25.42;14.35;;;6.40;85.70;;;;;;5045226;28;20103;-76
2021/12/01 09:08:08;;;;;;;34.95;18.13;;;6.40;86.10;;;;;;5044744;28;20036;-76
2021/12/01 09:10:35;;;;;;;129.75;49.30;;;6.40;85.40;;;;;;5045010;28;20029;-75
2021/12/01 09:13:01;;;;;;;145.85;56.30;;;6.60;85.90;;;;;;5046132;28;20103;-76
2021/12/01 09:15:27;;;;;;;89.13;40.47;;;7.50;87.60;;;;;;5043358;28;20082;-75
2021/12/01 09:17:53;;;;;;;37.92;20.13;;;6.30;87.80;;;;;;5043957;28;20033;-76
2021/12/01 09:20:19;;;;;;;26.08;14.85;;;6.40;84.10;;;;;;5042087;28;20034;-76
2021/12/01 09:22:45;;;;;;;13.10;7.15;;;6.40;84.40;;;;;;5043875;28;20499;-77
2021/12/01 09:25:12;;;;;;;13.90;7.57;;;6.50;82.10;;;;;;5043903;28;20033;-76
2021/12/01 09:27:38;;;;;;;14.10;6.88;;;6.60;82.00;;;;;;5044359;28;20699;-76
2021/12/01 09:30:07;;;;;;;18.70;8.40;;;6.80;82.20;;;;;;5043367;28;20025;-76
2021/12/01 09:32:37;;;;;;;11.93;5.57;;;7.20;81.70;;;;;;5042784;28;20013;-78
2021/12/01 09:35:05;;;;;;;7.63;3.95;;;7.30;79.50;;;;;;5041104;28;20040;-76
2021/12/01 09:37:30;;;;;;;15.73;6.80;;;7.30;76.30;;;;;;5043421;28;20025;-75
2021/12/01 09:39:56;;;;;;;20.42;11.93;;;7.50;77.00;;;;;;5043967;28;20697;-76
2021/12/01 09:42:23;;;;;;;26.90;14.93;;;7.70;79.40;;;;;;5043463;28;20017;-75
2021/12/01 09:44:50;;;;;;;26.05;12.77;;;7.70;79.90;;;;;;5044111;28;20032;-75
2021/12/01 09:47:20;;;;;;;16.05;7.47;;;7.70;78.00;;;;;;5043120;28;20075;-76
2021/12/01 09:49:47;;;;;;;16.25;7.65;;;7.70;76.10;;;;;;5042425;28;20648;-78
2021/12/01 09:52:13;;;;;;;13.23;6.70;;;7.70;75.20;;;;;;5040092;28;20027;-77
2021/12/01 09:54:40;;;;;;;11.38;6.13;;;7.70;74.20;;;;;;5041721;28;20104;-77
2021/12/01 09:57:07;;;;;;;14.48;6.70;;;8.00;75.30;;;;;;5042535;28;20021;-78
2021/12/01 09:59:35;;;;;;;21.90;8.57;;;8.40;74.70;;;;;;5042472;28;20045;-76
2021/12/01 10:02:01;;;;;;;14.32;7.53;;;8.50;78.10;;;;;;5040825;28;20025;-78
2021/12/01 10:04:28;;;;;;;10.95;5.22;;;8.80;72.30;;;;;;5040592;28;20025;-79
2021/12/01 10:07:19;;;;;;;18.73;9.35;;;8.70;69.90;;;;;;5040616;28;20032;-78
2021/12/01 10:09:50;;;;;;;16.95;9.40;;;8.70;71.80;;;;;;5042672;28;20113;-77
2021/12/01 10:12:17;;;;;;;11.73;6.57;;;8.80;72.80;;;;;;5043277;28;20184;-78
2021/12/01 10:14:48;;;;;;;14.10;8.38;;;8.80;71.40;;;;;;5043930;28;20029;-79
2021/12/01 10:17:16;;;;;;;30.83;17.40;;;8.80;71.80;;;;;;5046298;28;20095;-78
2021/12/01 10:19:42;;;;;;;54.78;30.17;;;9.10;73.10;;;;;;5046862;28;20040;-77
2021/12/01 10:22:11;;;;;;;41.25;20.92;;;9.30;74.10;;;;;;5045158;28;20025;-79
2021/12/01 10:24:45;;;;;;;32.88;18.55;;;9.40;71.80;;;;;;5043940;28;20016;-78
2021/12/01 10:27:13;;;;;;;51.50;29.42;;;9.60;74.90;;;;;;5042793;28;20694;-79
2021/12/01 10:29:48;;;;;;;40.05;22.05;;;9.80;71.70;;;;;;5042751;28;20024;-79
2021/12/01 10:32:18;;;;;;;44.72;26.15;;;9.70;69.60;;;;;;5042762;28;20689;-78
2021/12/01 10:34:50;;;;;;;48.65;23.63;;;9.60;71.10;;;;;;5043326;28;20056;-78
2021/12/01 10:37:31;;;;;;;36.58;20.73;;;9.90;70.90;;;;;;5042846;28;20025;-81
2021/12/01 10:40:24;;;;;;;24.85;14.93;;;10.10;70.20;;;;;;5043716;28;20044;-78
2021/12/01 10:43:09;;;;;;;32.78;18.30;;;10.20;66.70;;;;;;5043060;28;20032;-77
2021/12/01 10:45:38;;;;;;;16.63;9.93;;;10.30;68.30;;;;;;5044399;28;20025;-79
2021/12/01 10:48:09;;;;;;;6.28;2.28;;;10.40;66.80;;;;;;5043804;28;20109;-77
2021/12/01 10:50:40;;;;;;;2.45;1.48;;;10.40;64.00;;;;;;5044010;28;20682;-78
2021/12/01 10:53:14;;;;;;;5.15;1.83;;;10.40;63.70;;;;;;5045527;28;20693;-77
2021/12/01 10:55:48;;;;;;;3.40;2.00;;;10.30;65.30;;;;;;5043641;28;20108;-78
2021/12/01 10:58:15;;;;;;;6.38;2.03;;;10.40;64.60;;;;;;5045621;28;20120;-77
2021/12/01 11:00:46;;;;;;;3.47;2.17;;;10.20;65.20;;;;;;5046723;28;20044;-77
2021/12/01 11:03:17;;;;;;;2.78;1.83;;;10.20;66.70;;;;;;5047128;28;20013;-77
2021/12/01 11:05:50;;;;;;;4.53;2.30;;;10.30;64.90;;;;;;5048612;28;20017;-78
2021/12/01 11:08:17;;;;;;;4.75;1.95;;;10.40;65.20;;;;;;5047505;28;20275;-77
2021/12/01 11:10:48;;;;;;;4.32;2.45;;;10.40;65.50;;;;;;5053906;28;20009;-79
2021/12/01 11:13:15;;;;;;;8.48;3.22;;;10.30;66.00;;;;;;5055849;28;20040;-78
2021/12/01 11:15:43;;;;;;;5.18;2.80;;;10.40;65.90;;;;;;5056167;28;20060;-79
2021/12/01 11:18:17;;;;;;;5.55;3.03;;;10.30;65.50;;;;;;5053033;28;20017;-76
2021/12/01 11:20:48;;;;;;;5.65;2.60;;;10.40;65.40;;;;;;5050734;28;20128;-76
2021/12/01 11:23:23;;;;;;;9.15;2.15;;;10.30;64.60;;;;;;5047720;28;20028;-76
2021/12/01 11:26:01;;;;;;;6.53;2.78;;;10.20;64.50;;;;;;5051264;28;20025;-75
2021/12/01 11:28:32;;;;;;;5.20;2.50;;;10.20;65.60;;;;;;5048794;28;20025;-75
2021/12/01 11:31:01;;;;;;;4.20;2.47;;;10.30;66.70;;;;;;5046855;28;20112;-76
2021/12/01 11:33:30;;;;;;;3.25;1.80;;;10.30;64.90;;;;;;5047249;28;20060;-76
2021/12/01 11:36:05;;;;;;;3.30;2.10;;;10.30;66.40;;;;;;5045998;28;20025;-76
2021/12/01 11:38:31;;;;;;;3.08;1.90;;;10.30;66.50;;;;;;5045116;28;20029;-77
2021/12/01 11:41:00;;;;;;;3.67;1.67;;;10.40;67.50;;;;;;5045116;28;20040;-78
2021/12/01 11:43:29;;;;;;;3.65;1.75;;;10.30;65.30;;;;;;5046945;28;20017;-77
2021/12/01 11:45:55;;;;;;;2.88;1.73;;;10.30;66.00;;;;;;5045182;28;20024;-77
2021/12/01 11:48:30;;;;;;;5.82;2.42;;;10.30;65.30;;;;;;5045318;28;20039;-76
2021/12/01 11:50:55;;;;;;;3.90;1.80;;;10.30;65.90;;;;;;5044662;28;20032;-77
2021/12/01 11:53:25;;;;;;;5.18;1.42;;;10.30;67.50;;;;;;5045852;28;20025;-77
2021/12/01 11:55:58;;;;;;;6.78;2.30;;;10.30;66.00;;;;;;5046713;28;20523;-77
2021/12/01 11:58:58;;;;;;;4.53;2.45;;;10.10;67.80;;;;;;5050856;28;20044;-78
2021/12/01 12:01:26;;;;;;;4.53;2.30;;;10.30;68.10;;;;;;5051538;28;20032;-76
2021/12/01 12:04:01;;;;;;;7.53;3.33;;;10.40;67.20;;;;;;5052184;28;20020;-76
2021/12/01 12:06:29;;;;;;;6.82;3.53;;;10.40;68.00;;;;;;5050947;28;20031;-76
2021/12/01 12:08:56;;;;;;;6.40;3.58;;;10.50;68.00;;;;;;5051009;28;20241;-76
2021/12/01 12:11:35;;;;;;;7.32;3.78;;;10.70;68.30;;;;;;5051237;28;20040;-76
2021/12/01 12:14:13;;;;;;;8.13;4.68;;;10.60;65.90;;;;;;5050124;28;20051;-76
2021/12/01 12:16:41;;;;;;;8.88;5.10;;;10.80;66.50;;;;;;5050873;28;20036;-76
2021/12/01 12:19:07;;;;;;;9.60;3.30;;;10.80;64.60;;;;;;5053199;28;20631;-77
2021/12/01 12:24:14;;;;;;;6.55;2.42;;;10.80;64.10;;;;;;5051436;28;20060;-76
2021/12/01 12:26:44;;;;;;;5.28;2.08;;;10.80;63.60;;;;;;5049551;28;20017;-78
2021/12/01 12:29:42;;;;;;;5.07;2.63;;;10.70;64.30;;;;;;5047194;28;20499;-74
2021/12/01 12:32:21;;;;;;;6.18;3.15;;;10.60;65.80;;;;;;5045227;28;20087;-77
2021/12/01 12:34:54;;;;;;;4.65;2.28;;;10.80;66.10;;;;;;5044311;28;20106;-77
2021/12/01 12:37:27;;;;;;;3.22;1.75;;;10.80;64.50;;;;;;5044637;28;20029;-76
2021/12/01 12:39:54;;;;;;;3.05;1.75;;;10.70;63.40;;;;;;5042743;28;20123;-76
2021/12/01 12:42:20;;;;;;;3.08;1.60;;;10.60;63.30;;;;;;5047103;28;20201;-77
2021/12/01 12:44:53;;;;;;;8.40;2.08;;;10.60;62.80;;;;;;5044101;28;20060;-76
2021/12/01 12:47:25;;;;;;;3.60;1.80;;;10.30;64.40;;;;;;5046707;28;20017;-76
2021/12/01 12:49:56;;;;;;;1.40;1.20;;;10.40;66.60;;;;;;5048294;28;20021;-76
2021/12/01 12:52:46;;;;;;;2.47;1.30;;;10.40;63.50;;;;;;5045518;28;20116;-77
2021/12/01 12:55:21;;;;;;;2.80;1.40;;;10.30;64.50;;;;;;5024541;28;20042;-77
2021/12/01 12:58:02;;;;;;;3.55;1.83;;;10.20;65.30;;;;;;5025067;28;20076;-76